Time;durP1;ratioP1;P1;durP2;ratioP2;P2;SDS_P1;SDS_P2;PMS_P1;PMS_P2;Temp;Humidity;BMP_temperature;BMP_pressure;BME280_temperature;BME280_humidity;BME280_pressure;Samples;Min_cycle;Max_cycle;Signal;HPM_P1;HPM_P2
2023/03/29 00:02:08;;;;;;;10.00;6.00;;;5.20;99.90;;;;;;5091464;28;20063;-68
2023/03/29 00:04:35;;;;;;;6.60;5.90;;;5.30;99.90;;;;;;5110117;28;20398;-71
2023/03/29 00:07:03;;;;;;;8.98;5.50;;;5.30;99.90;;;;;;5090016;28;20138;-69
2023/03/29 00:09:32;;;;;;;8.43;6.18;;;5.30;99.90;;;;;;5109686;28;20124;-70
2023/03/29 00:12:00;;;;;;;8.82;6.03;;;5.20;99.90;;;;;;5109916;28;20110;-68
2023/03/29 00:14:29;;;;;;;7.25;5.88;;;5.20;99.90;;;;;;5101279;28;20066;-68
2023/03/29 00:16:57;;;;;;;8.02;5.85;;;5.30;99.90;;;;;;5090998;28;20044;-71
2023/03/29 00:19:25;;;;;;;7.85;5.93;;;5.30;99.90;;;;;;5109314;28;20046;-70
2023/03/29 00:21:52;;;;;;;8.13;6.35;;;5.20;99.90;;;;;;5071433;28;20710;-69
2023/03/29 00:24:20;;;;;;;6.90;5.97;;;5.20;99.90;;;;;;5108104;28;20505;-68
2023/03/29 00:26:47;;;;;;;7.22;6.07;;;5.20;99.90;;;;;;5108702;28;20052;-68
2023/03/29 00:29:15;;;;;;;10.32;6.00;;;5.10;99.90;;;;;;5109026;28;20039;-68
2023/03/29 00:31:51;;;;;;;13.18;5.97;;;5.20;99.90;;;;;;5105551;28;20467;-68
2023/03/29 00:34:29;;;;;;;15.45;6.50;;;5.20;99.90;;;;;;5101036;28;20036;-67
2023/03/29 00:36:57;;;;;;;9.07;6.13;;;5.20;99.90;;;;;;5103516;28;20062;-68
2023/03/29 00:39:26;;;;;;;9.65;5.80;;;5.20;99.90;;;;;;5090154;28;20054;-68
2023/03/29 00:41:54;;;;;;;7.97;6.10;;;5.10;99.90;;;;;;5091570;28;20471;-68
2023/03/29 00:44:57;;;;;;;9.85;6.30;;;5.10;99.90;;;;;;5091433;28;20485;-68
2023/03/29 00:47:51;;;;;;;7.28;6.00;;;5.20;99.90;;;;;;5090742;28;20566;-68
2023/03/29 00:50:35;;;;;;;8.13;6.03;;;5.20;99.90;;;;;;5103329;28;20092;-67
2023/03/29 00:53:18;;;;;;;9.05;6.18;;;5.20;99.90;;;;;;5109033;28;20046;-68
2023/03/29 00:56:23;;;;;;;9.90;5.90;;;5.10;99.90;;;;;;5090598;28;20110;-68
2023/03/29 00:58:58;;;;;;;8.07;5.95;;;5.20;99.90;;;;;;5020425;28;20405;-69
2023/03/29 01:01:52;;;;;;;8.90;5.82;;;5.20;99.90;;;;;;5009987;28;20464;-68
2023/03/29 01:04:31;;;;;;;8.07;5.43;;;5.20;99.90;;;;;;5025143;28;20049;-69
2023/03/29 01:07:06;;;;;;;10.02;6.28;;;5.20;99.90;;;;;;5006282;28;20042;-68
2023/03/29 01:09:36;;;;;;;7.13;5.80;;;5.20;99.90;;;;;;5025736;28;20065;-68
2023/03/29 01:12:15;;;;;;;10.00;6.20;;;5.20;99.90;;;;;;5023664;28;20109;-68
2023/03/29 01:14:52;;;;;;;8.15;6.30;;;5.20;99.90;;;;;;5007315;28;20451;-68
2023/03/29 01:17:20;;;;;;;8.02;5.97;;;5.30;99.90;;;;;;4993502;28;20136;-68
2023/03/29 01:19:57;;;;;;;9.20;6.40;;;5.30;99.90;;;;;;5004767;28;20058;-68
2023/03/29 01:22:38;;;;;;;10.65;5.78;;;5.30;99.90;;;;;;5008985;28;20042;-68
2023/03/29 01:25:20;;;;;;;9.40;6.10;;;5.40;99.90;;;;;;5009591;28;20504;-68
2023/03/29 01:28:01;;;;;;;7.78;5.88;;;5.40;99.90;;;;;;5008717;28;20068;-69
2023/03/29 01:30:43;;;;;;;9.88;6.15;;;5.40;99.90;;;;;;5022043;28;20121;-69
2023/03/29 01:33:13;;;;;;;8.90;5.93;;;5.50;99.90;;;;;;5063331;28;20443;-68
2023/03/29 01:35:50;;;;;;;10.32;6.20;;;5.50;99.90;;;;;;5090714;28;20050;-68
2023/03/29 01:38:35;;;;;;;7.32;5.97;;;5.50;99.90;;;;;;5092447;28;20101;-68
2023/03/29 01:41:02;;;;;;;6.80;5.63;;;5.50;99.90;;;;;;5093584;28;20062;-68
2023/03/29 01:43:37;;;;;;;7.75;5.93;;;5.50;99.90;;;;;;5094564;28;20130;-68
2023/03/29 01:46:32;;;;;;;10.68;6.45;;;5.50;99.90;;;;;;5085945;28;20044;-68
2023/03/29 01:49:12;;;;;;;7.65;6.03;;;5.50;99.90;;;;;;5094230;28;20473;-68
2023/03/29 01:51:49;;;;;;;9.35;6.47;;;5.50;99.90;;;;;;5104313;28;20120;-68
2023/03/29 01:54:37;;;;;;;8.00;5.75;;;5.50;99.90;;;;;;5111982;28;20127;-68
2023/03/29 01:57:08;;;;;;;8.05;6.00;;;5.50;99.90;;;;;;5075183;28;20066;-68
2023/03/29 01:59:42;;;;;;;8.05;6.35;;;5.40;99.90;;;;;;5091714;28;20570;-68
2023/03/29 02:02:14;;;;;;;7.80;6.03;;;5.40;99.90;;;;;;5084107;28;20410;-68
2023/03/29 02:04:51;;;;;;;7.47;5.95;;;5.40;99.90;;;;;;5085973;28;20457;-68
2023/03/29 02:07:24;;;;;;;10.57;6.03;;;5.40;99.90;;;;;;5092376;28;20313;-68
2023/03/29 02:09:52;;;;;;;9.10;5.75;;;5.40;99.90;;;;;;5112266;28;20040;-68
2023/03/29 02:12:20;;;;;;;10.75;5.95;;;5.40;99.90;;;;;;5103986;28;20070;-68
2023/03/29 02:14:48;;;;;;;9.18;6.57;;;5.40;99.90;;;;;;5110354;28;20569;-68
2023/03/29 02:17:23;;;;;;;7.90;5.85;;;5.30;99.90;;;;;;5090355;28;20052;-68
2023/03/29 02:19:56;;;;;;;8.40;6.55;;;5.40;99.90;;;;;;5092024;28;20048;-68
2023/03/29 02:22:37;;;;;;;9.15;6.20;;;5.40;99.90;;;;;;5111880;28;20035;-68
2023/03/29 02:25:08;;;;;;;9.27;6.00;;;5.30;99.90;;;;;;5092142;28;20375;-68
2023/03/29 02:27:37;;;;;;;10.43;5.50;;;5.30;99.90;;;;;;5071795;28;20032;-68
2023/03/29 02:30:07;;;;;;;9.05;6.25;;;5.30;99.90;;;;;;5074920;28;20278;-67
2023/03/29 02:32:44;;;;;;;8.50;5.57;;;5.20;99.90;;;;;;5088480;28;20043;-68
2023/03/29 02:35:59;;;;;;;7.47;5.53;;;5.20;99.90;;;;;;5096751;28;20032;-68
2023/03/29 02:38:28;;;;;;;7.80;5.75;;;5.20;99.90;;;;;;4974275;28;20121;-68
2023/03/29 02:40:58;;;;;;;10.65;5.80;;;5.20;99.90;;;;;;4991263;28;20081;-68
2023/03/29 02:43:28;;;;;;;11.25;6.38;;;5.10;99.90;;;;;;5008278;28;20053;-67
2023/03/29 02:45:55;;;;;;;9.23;5.97;;;5.20;99.90;;;;;;5003514;28;20069;-68
2023/03/29 02:48:26;;;;;;;9.50;6.10;;;5.10;99.90;;;;;;5007395;28;20093;-67
2023/03/29 02:50:59;;;;;;;11.00;6.25;;;5.10;99.90;;;;;;4985720;28;20073;-68
2023/03/29 02:53:41;;;;;;;9.80;6.18;;;5.10;99.90;;;;;;4982036;28;20063;-68
2023/03/29 02:56:08;;;;;;;8.05;5.50;;;5.10;99.90;;;;;;4989866;28;20046;-68
2023/03/29 02:58:35;;;;;;;9.88;5.20;;;5.10;99.90;;;;;;5022575;28;20030;-69
2023/03/29 03:01:05;;;;;;;8.80;5.45;;;5.10;99.90;;;;;;4990495;28;20261;-67
2023/03/29 03:03:34;;;;;;;7.35;5.55;;;5.10;99.90;;;;;;4990356;28;20064;-67
2023/03/29 03:06:03;;;;;;;7.85;5.55;;;5.10;99.90;;;;;;4999154;28;20052;-70
2023/03/29 03:08:31;;;;;;;6.18;5.05;;;5.10;99.90;;;;;;4974583;28;20042;-68
2023/03/29 03:10:58;;;;;;;8.27;5.43;;;5.10;99.90;;;;;;4990041;28;20305;-66
2023/03/29 03:13:26;;;;;;;7.00;5.13;;;5.10;99.90;;;;;;5080092;28;20069;-66
2023/03/29 03:15:53;;;;;;;8.98;5.38;;;5.10;99.90;;;;;;5083240;28;20047;-68
2023/03/29 03:18:21;;;;;;;7.75;5.00;;;5.00;99.90;;;;;;5080082;28;20506;-68
2023/03/29 03:20:57;;;;;;;7.20;5.38;;;5.10;99.90;;;;;;5090442;28;20455;-67
2023/03/29 03:23:25;;;;;;;6.15;4.80;;;5.10;99.90;;;;;;5086681;28;20067;-67
2023/03/29 03:25:53;;;;;;;7.57;5.15;;;5.00;99.90;;;;;;5092088;28;20066;-67
2023/03/29 03:28:22;;;;;;;7.07;5.05;;;5.00;99.90;;;;;;5090469;28;20656;-67
2023/03/29 03:30:50;;;;;;;9.32;5.13;;;5.00;99.90;;;;;;5074762;28;20070;-67
2023/03/29 03:33:36;;;;;;;8.80;4.80;;;5.00;99.90;;;;;;5102998;28;20031;-67
2023/03/29 03:36:27;;;;;;;6.75;5.10;;;5.00;99.90;;;;;;5090967;28;20042;-67
2023/03/29 03:38:56;;;;;;;8.95;5.45;;;5.10;99.90;;;;;;5091501;28;20092;-67
2023/03/29 03:41:25;;;;;;;6.63;4.70;;;5.00;99.90;;;;;;5110092;28;20043;-67
2023/03/29 03:43:53;;;;;;;6.97;4.70;;;5.00;99.90;;;;;;5090523;28;20043;-67
2023/03/29 03:46:21;;;;;;;6.90;4.45;;;5.10;99.90;;;;;;5040003;28;20044;-68
2023/03/29 03:48:49;;;;;;;7.88;4.57;;;5.00;99.90;;;;;;5061119;28;20647;-67
2023/03/29 03:51:28;;;;;;;6.82;4.80;;;5.10;99.90;;;;;;5088171;28;20398;-68
2023/03/29 03:53:55;;;;;;;6.50;4.40;;;5.10;99.90;;;;;;5069984;28;20062;-67
2023/03/29 03:56:34;;;;;;;8.50;4.90;;;5.10;99.90;;;;;;5101403;28;20031;-67
2023/03/29 03:59:16;;;;;;;8.77;4.95;;;5.10;99.90;;;;;;5092116;28;20039;-68
2023/03/29 04:01:52;;;;;;;6.35;4.38;;;5.10;99.90;;;;;;5089823;28;20065;-68
2023/03/29 04:04:22;;;;;;;9.00;4.97;;;5.10;99.90;;;;;;5090779;28;21007;-68
2023/03/29 04:07:02;;;;;;;6.68;4.10;;;5.00;99.90;;;;;;5088564;28;20425;-68
2023/03/29 04:09:40;;;;;;;7.95;4.38;;;5.10;99.90;;;;;;5090240;28;20039;-68
2023/03/29 04:12:27;;;;;;;5.82;3.88;;;5.10;99.90;;;;;;5086930;28;20067;-67
2023/03/29 04:14:54;;;;;;;7.15;4.38;;;5.10;99.90;;;;;;5089843;28;20043;-67
2023/03/29 04:17:26;;;;;;;5.97;4.38;;;5.10;99.90;;;;;;5088523;28;20134;-67
2023/03/29 04:20:11;;;;;;;6.97;4.65;;;5.10;99.90;;;;;;5090223;28;20123;-67
2023/03/29 04:22:40;;;;;;;7.40;4.68;;;5.10;99.90;;;;;;5085556;28;20032;-67
2023/03/29 04:25:09;;;;;;;10.48;4.55;;;5.00;99.90;;;;;;5090761;28;20047;-68
2023/03/29 04:27:45;;;;;;;9.20;5.60;;;5.10;99.90;;;;;;5108733;28;20096;-68
2023/03/29 04:30:33;;;;;;;7.68;4.47;;;5.10;99.90;;;;;;5106158;28;20059;-67
2023/03/29 04:33:10;;;;;;;8.00;4.90;;;5.10;99.90;;;;;;5109231;28;20032;-67
2023/03/29 04:35:40;;;;;;;11.57;5.35;;;5.10;99.90;;;;;;5084924;28;20486;-67
2023/03/29 04:38:12;;;;;;;11.43;6.07;;;5.10;99.90;;;;;;5089998;28;20040;-67
2023/03/29 04:40:40;;;;;;;10.68;5.45;;;5.10;99.90;;;;;;5090408;28;20115;-67
2023/03/29 04:43:13;;;;;;;9.63;5.40;;;5.10;99.90;;;;;;5073257;28;20047;-67
2023/03/29 04:46:01;;;;;;;8.43;5.55;;;5.10;99.90;;;;;;5107851;28;20109;-67
2023/03/29 04:48:54;;;;;;;8.00;4.82;;;5.10;99.90;;;;;;5096453;28;20136;-68
2023/03/29 04:51:32;;;;;;;8.40;5.00;;;5.10;99.90;;;;;;5091501;28;20470;-67
2023/03/29 04:54:00;;;;;;;8.95;5.72;;;5.10;99.90;;;;;;5089264;28;20167;-68
2023/03/29 04:56:27;;;;;;;8.75;5.75;;;5.10;99.90;;;;;;5089947;28;20100;-68
2023/03/29 04:59:18;;;;;;;9.00;5.88;;;5.00;99.90;;;;;;5089967;28;20051;-68
2023/03/29 05:01:46;;;;;;;7.90;5.35;;;5.00;99.90;;;;;;5081701;28;20503;-68
2023/03/29 05:04:13;;;;;;;8.48;5.10;;;5.00;99.90;;;;;;5092727;28;20062;-67
2023/03/29 05:06:55;;;;;;;8.57;4.93;;;5.00;99.90;;;;;;5094544;28;20052;-68
2023/03/29 05:09:24;;;;;;;10.85;5.25;;;5.00;99.90;;;;;;5093872;28;20044;-67
2023/03/29 05:11:52;;;;;;;10.10;5.80;;;5.00;99.90;;;;;;5090205;28;20055;-67
2023/03/29 05:14:22;;;;;;;6.93;4.95;;;4.90;99.90;;;;;;5094875;28;20074;-69
2023/03/29 05:16:49;;;;;;;9.38;5.20;;;5.00;99.90;;;;;;5093571;28;20466;-68
2023/03/29 05:19:20;;;;;;;9.05;5.57;;;5.00;99.90;;;;;;5077870;28;20040;-68
2023/03/29 05:21:49;;;;;;;8.80;5.70;;;4.90;99.90;;;;;;5094296;28;20456;-68
2023/03/29 05:24:21;;;;;;;10.20;5.50;;;4.90;99.90;;;;;;5093715;28;20040;-68
2023/03/29 05:26:55;;;;;;;8.98;5.32;;;4.80;99.90;;;;;;5093737;28;20539;-68
2023/03/29 05:29:23;;;;;;;8.98;5.55;;;4.80;99.90;;;;;;5090297;28;20044;-68
2023/03/29 05:31:58;;;;;;;8.68;5.30;;;4.80;99.90;;;;;;5090377;28;20539;-68
2023/03/29 05:34:26;;;;;;;8.98;5.88;;;4.80;99.90;;;;;;5091977;28;20038;-67
2023/03/29 05:36:58;;;;;;;9.13;5.88;;;4.80;99.90;;;;;;5093882;28;20043;-68
2023/03/29 05:39:30;;;;;;;9.50;5.95;;;4.70;99.90;;;;;;5093097;28;20135;-68
2023/03/29 05:41:59;;;;;;;10.30;5.82;;;4.70;99.90;;;;;;5092716;28;20096;-68
2023/03/29 05:44:30;;;;;;;10.85;5.63;;;4.60;99.90;;;;;;5097713;28;20035;-67
2023/03/29 05:47:07;;;;;;;11.35;5.95;;;4.70;99.90;;;;;;5091611;28;20223;-67
2023/03/29 05:49:36;;;;;;;13.23;6.10;;;4.70;99.90;;;;;;5075391;28;20073;-67
2023/03/29 05:52:18;;;;;;;9.57;5.82;;;4.80;99.90;;;;;;5074552;28;20553;-67
2023/03/29 05:54:45;;;;;;;9.55;5.50;;;4.90;99.90;;;;;;5070986;28;20467;-67
2023/03/29 05:57:14;;;;;;;9.73;5.65;;;5.00;99.90;;;;;;5071446;28;20058;-67
2023/03/29 05:59:42;;;;;;;12.98;6.45;;;5.10;99.90;;;;;;5075162;28;20051;-67
2023/03/29 06:02:11;;;;;;;10.13;6.25;;;5.20;99.90;;;;;;5088667;28;20507;-67
2023/03/29 06:04:44;;;;;;;11.20;6.00;;;5.30;99.90;;;;;;5073467;28;20048;-67
2023/03/29 06:07:24;;;;;;;9.23;5.53;;;5.40;99.90;;;;;;5107017;28;20139;-68
2023/03/29 06:10:10;;;;;;;13.15;7.15;;;5.50;99.90;;;;;;5111000;28;20134;-68
2023/03/29 06:12:41;;;;;;;10.60;5.70;;;5.60;99.90;;;;;;5092127;28;20039;-68
2023/03/29 06:15:09;;;;;;;8.63;5.50;;;5.70;99.90;;;;;;5073972;28;20051;-67
2023/03/29 06:17:46;;;;;;;10.48;6.07;;;5.80;99.90;;;;;;5075749;28;20473;-67
2023/03/29 06:20:15;;;;;;;8.13;5.82;;;5.80;99.90;;;;;;5093167;28;20120;-68
2023/03/29 06:22:47;;;;;;;10.93;5.80;;;5.80;99.90;;;;;;5071379;28;20079;-68
2023/03/29 06:25:16;;;;;;;10.25;5.82;;;5.90;99.90;;;;;;5086147;28;20555;-67
2023/03/29 06:27:46;;;;;;;9.95;6.30;;;5.90;99.90;;;;;;5088913;28;20428;-67
2023/03/29 06:30:16;;;;;;;8.75;5.85;;;6.00;99.90;;;;;;5088601;28;20554;-67
2023/03/29 06:32:49;;;;;;;7.75;5.43;;;6.00;99.90;;;;;;5089517;28;20048;-72
2023/03/29 06:35:36;;;;;;;9.07;5.72;;;6.10;99.90;;;;;;5092659;28;20377;-73
2023/03/29 06:38:08;;;;;;;9.38;6.13;;;6.10;99.90;;;;;;5072325;28;20059;-71
2023/03/29 06:41:04;;;;;;;9.93;5.57;;;6.10;99.90;;;;;;5096016;28;20056;-71
2023/03/29 06:43:49;;;;;;;11.18;5.57;;;6.20;99.90;;;;;;5093128;28;20054;-70
2023/03/29 06:46:16;;;;;;;9.88;5.88;;;6.30;99.90;;;;;;5091482;28;20502;-71
2023/03/29 06:48:55;;;;;;;10.85;5.90;;;6.40;99.90;;;;;;5092538;28;20042;-70
2023/03/29 06:51:28;;;;;;;10.40;5.47;;;6.60;99.90;;;;;;5086155;28;20493;-71
2023/03/29 06:53:56;;;;;;;13.23;6.45;;;6.70;99.90;;;;;;5090922;28;20089;-72
2023/03/29 06:56:23;;;;;;;9.43;6.45;;;6.80;99.90;;;;;;5072971;28;20399;-70
2023/03/29 06:59:02;;;;;;;9.30;6.43;;;6.80;99.90;;;;;;5070839;28;20518;-71
2023/03/29 07:01:51;;;;;;;7.88;5.57;;;6.90;99.90;;;;;;5107251;28;20066;-71
2023/03/29 07:04:31;;;;;;;7.70;5.70;;;7.00;99.90;;;;;;5084820;28;20032;-71
2023/03/29 07:07:21;;;;;;;9.05;5.35;;;7.10;99.90;;;;;;5090248;28;20304;-72
2023/03/29 07:10:00;;;;;;;8.60;5.35;;;7.20;99.90;;;;;;5071930;28;20485;-73
2023/03/29 07:12:48;;;;;;;7.60;5.22;;;7.20;99.90;;;;;;5105485;28;20040;-71
2023/03/29 07:15:16;;;;;;;8.43;5.82;;;7.30;99.90;;;;;;5075333;28;20042;-71
2023/03/29 07:18:03;;;;;;;9.25;6.03;;;7.50;99.90;;;;;;5100452;28;20098;-71
2023/03/29 07:20:32;;;;;;;7.65;5.40;;;7.60;99.90;;;;;;5079771;28;20381;-71
2023/03/29 07:23:08;;;;;;;10.82;5.45;;;7.70;99.90;;;;;;5074009;28;20062;-71
2023/03/29 07:25:37;;;;;;;8.48;5.90;;;7.90;99.90;;;;;;5087014;28;20565;-71
2023/03/29 07:28:05;;;;;;;10.63;6.03;;;7.80;99.90;;;;;;5054127;28;20498;-72
2023/03/29 07:30:32;;;;;;;9.50;5.50;;;8.00;99.90;;;;;;5091410;28;20559;-72
2023/03/29 07:33:12;;;;;;;8.10;5.70;;;8.10;99.90;;;;;;5059575;28;20139;-71
2023/03/29 07:35:47;;;;;;;26.50;13.52;;;8.20;99.90;;;;;;5090271;28;20046;-73
2023/03/29 07:38:14;;;;;;;10.27;6.43;;;8.40;99.90;;;;;;5091976;28;20066;-72
2023/03/29 07:40:47;;;;;;;10.15;6.05;;;8.50;99.90;;;;;;5075421;28;20114;-71
2023/03/29 07:43:33;;;;;;;11.45;6.57;;;8.50;99.90;;;;;;5069525;28;20226;-71
2023/03/29 07:46:02;;;;;;;7.75;5.90;;;8.60;99.90;;;;;;5089870;28;20051;-73
2023/03/29 07:48:32;;;;;;;10.43;5.55;;;8.40;99.90;;;;;;5079181;28;20042;-73
2023/03/29 07:51:05;;;;;;;8.18;5.20;;;8.50;99.90;;;;;;5088013;28;20494;-70
2023/03/29 07:53:41;;;;;;;9.75;5.30;;;8.60;99.90;;;;;;5084348;28;20498;-72
2023/03/29 07:56:31;;;;;;;21.60;12.20;;;8.80;99.90;;;;;;5080969;28;20101;-73
2023/03/29 07:59:18;;;;;;;9.80;5.78;;;8.80;99.90;;;;;;5073160;28;20071;-72
2023/03/29 08:01:52;;;;;;;10.98;5.30;;;8.90;99.90;;;;;;5071568;28;20047;-72
2023/03/29 08:04:33;;;;;;;8.30;5.38;;;8.90;99.90;;;;;;5082988;28;20440;-72
2023/03/29 08:07:20;;;;;;;10.32;5.38;;;9.00;99.90;;;;;;5104133;28;20383;-74
2023/03/29 08:09:59;;;;;;;7.90;5.63;;;8.90;99.90;;;;;;5090998;28;20498;-74
2023/03/29 08:12:42;;;;;;;9.35;5.72;;;9.00;99.90;;;;;;5086706;28;20537;-72
2023/03/29 08:15:10;;;;;;;8.05;5.82;;;9.00;99.90;;;;;;5070364;28;20478;-74
2023/03/29 08:17:37;;;;;;;8.18;5.00;;;9.10;99.90;;;;;;5072444;28;20112;-72
2023/03/29 08:20:08;;;;;;;7.65;5.07;;;9.20;99.90;;;;;;5073610;28;20454;-72
2023/03/29 08:22:39;;;;;;;7.88;5.40;;;9.30;99.90;;;;;;5072726;28;20040;-74
2023/03/29 08:25:10;;;;;;;9.80;5.75;;;9.30;99.90;;;;;;5108675;28;20060;-71
2023/03/29 08:27:43;;;;;;;11.88;6.10;;;9.30;99.90;;;;;;5088759;28;20462;-71
2023/03/29 08:30:13;;;;;;;9.60;6.00;;;9.50;99.90;;;;;;5090277;28;20040;-71
2023/03/29 08:32:43;;;;;;;10.60;6.57;;;9.50;99.90;;;;;;5089571;28;20482;-73
2023/03/29 08:35:10;;;;;;;10.00;5.70;;;9.30;99.90;;;;;;5085085;28;20039;-74
2023/03/29 08:37:50;;;;;;;9.85;5.43;;;9.40;99.90;;;;;;5076842;28;20052;-72
2023/03/29 08:40:25;;;;;;;10.45;5.45;;;9.50;99.90;;;;;;5089944;28;20422;-73
2023/03/29 08:43:07;;;;;;;12.02;5.65;;;9.60;99.90;;;;;;5074314;28;20299;-71
2023/03/29 08:46:05;;;;;;;9.75;5.82;;;9.80;99.90;;;;;;5102710;28;20039;-71
2023/03/29 08:48:55;;;;;;;12.18;5.78;;;9.90;99.90;;;;;;5079905;28;20043;-70
2023/03/29 08:51:27;;;;;;;;;;;9.70;99.90;;;;;;5076004;28;20044;-72
2023/03/29 08:54:19;;;;;;;9.18;5.85;;;9.80;99.90;;;;;;5092733;28;20022;-71
2023/03/29 08:57:21;;;;;;;9.77;5.93;;;10.10;99.90;;;;;;5109044;28;20046;-71
2023/03/29 08:59:56;;;;;;;10.35;5.65;;;10.20;99.90;;;;;;5079443;27;20208;-66
2023/03/29 09:02:26;;;;;;;14.40;6.33;;;10.30;99.90;;;;;;5113834;27;20312;-66
2023/03/29 09:05:27;;;;;;;8.75;5.45;;;10.20;99.90;;;;;;5094203;28;20411;-66
2023/03/29 09:08:27;;;;;;;8.48;5.85;;;10.50;99.90;;;;;;5079260;28;20036;-66
2023/03/29 09:11:05;;;;;;;10.98;5.60;;;10.80;99.90;;;;;;5087411;28;20518;-66
2023/03/29 09:13:46;;;;;;;8.90;6.00;;;11.00;99.90;;;;;;5080605;28;20515;-67
2023/03/29 09:16:26;;;;;;;10.75;6.47;;;11.40;99.90;;;;;;5066728;28;20044;-67
2023/03/29 09:19:20;;;;;;;9.18;5.97;;;11.80;99.90;;;;;;5093880;28;20046;-67
2023/03/29 09:21:55;;;;;;;7.50;5.45;;;12.10;99.90;;;;;;5088132;28;20050;-68
2023/03/29 09:25:02;;;;;;;7.95;5.10;;;12.30;99.90;;;;;;5075875;28;20755;-67
2023/03/29 09:27:35;;;;;;;6.22;4.45;;;12.50;99.90;;;;;;5092954;28;20046;-66
2023/03/29 09:30:27;;;;;;;8.45;4.97;;;12.50;99.90;;;;;;5083921;28;20032;-67
2023/03/29 09:33:21;;;;;;;6.28;5.03;;;12.30;99.90;;;;;;5076478;28;20512;-68
2023/03/29 09:36:10;;;;;;;7.35;4.57;;;12.30;99.90;;;;;;5087211;28;20473;-68
2023/03/29 09:38:46;;;;;;;8.60;4.88;;;12.30;99.90;;;;;;5092962;28;20367;-69
2023/03/29 09:41:51;;;;;;;8.52;4.47;;;12.40;99.90;;;;;;5088568;28;20039;-67
2023/03/29 09:44:27;;;;;;;6.03;4.47;;;12.40;99.90;;;;;;5066662;28;20051;-67
2023/03/29 09:47:11;;;;;;;7.30;4.88;;;12.70;99.90;;;;;;5075501;28;20043;-69
2023/03/29 09:49:43;;;;;;;9.07;4.68;;;13.00;99.90;;;;;;5086976;28;20036;-66
2023/03/29 09:52:13;;;;;;;7.03;4.28;;;13.20;99.90;;;;;;5083448;28;20044;-67
2023/03/29 09:54:46;;;;;;;6.28;4.30;;;13.40;99.90;;;;;;5092008;28;20046;-67
2023/03/29 09:57:32;;;;;;;6.28;4.68;;;13.10;99.90;;;;;;5092606;28;20158;-67
2023/03/29 10:00:04;;;;;;;5.45;4.07;;;13.30;99.90;;;;;;5106237;28;20097;-68
2023/03/29 10:02:39;;;;;;;6.05;4.72;;;13.50;99.90;;;;;;5072114;28;20040;-66
2023/03/29 10:05:14;;;;;;;7.55;4.65;;;13.60;99.90;;;;;;5089506;28;20355;-67
2023/03/29 10:07:49;;;;;;;7.95;4.60;;;13.00;99.90;;;;;;5072284;28;20040;-66
2023/03/29 10:10:32;;;;;;;10.27;4.60;;;13.00;99.90;;;;;;5090503;28;20421;-69
2023/03/29 10:13:04;;;;;;;6.18;4.43;;;13.00;99.90;;;;;;5105042;28;20478;-68
2023/03/29 10:15:32;;;;;;;5.65;4.00;;;13.20;99.90;;;;;;5067457;28;20071;-68
2023/03/29 10:18:09;;;;;;;7.97;4.72;;;13.10;99.90;;;;;;5109937;28;20127;-68
2023/03/29 10:20:38;;;;;;;6.40;4.30;;;13.20;99.90;;;;;;5078941;28;20579;-66
2023/03/29 10:23:08;;;;;;;6.38;4.63;;;13.30;99.90;;;;;;5109754;28;20043;-69
2023/03/29 10:25:40;;;;;;;6.28;4.53;;;13.10;99.90;;;;;;5110765;28;20074;-69
2023/03/29 10:28:17;;;;;;;8.30;4.25;;;12.90;99.90;;;;;;5092995;28;20374;-67
2023/03/29 10:30:51;;;;;;;6.07;4.20;;;12.80;99.90;;;;;;5068625;28;20046;-66
2023/03/29 10:33:22;;;;;;;5.55;4.00;;;12.80;99.90;;;;;;5078957;28;20102;-69
2023/03/29 10:35:50;;;;;;;7.82;4.22;;;12.90;99.90;;;;;;5081833;28;20122;-68
2023/03/29 10:38:20;;;;;;;6.05;4.20;;;12.80;99.90;;;;;;5109580;28;20065;-67
2023/03/29 10:40:50;;;;;;;5.82;4.45;;;12.90;99.90;;;;;;5086390;28;20454;-66
2023/03/29 10:43:25;;;;;;;9.27;4.38;;;13.10;99.90;;;;;;5073479;28;20304;-69
2023/03/29 10:45:55;;;;;;;5.85;3.78;;;13.10;99.90;;;;;;5108654;28;20084;-66
2023/03/29 10:48:30;;;;;;;5.35;4.20;;;13.30;99.90;;;;;;5091224;28;20036;-68
2023/03/29 10:50:59;;;;;;;5.75;3.20;;;13.30;99.90;;;;;;5091307;28;20544;-65
2023/03/29 10:53:33;;;;;;;5.82;3.88;;;13.40;99.90;;;;;;5109929;28;20035;-66
2023/03/29 10:56:10;;;;;;;5.78;3.90;;;13.50;99.90;;;;;;5089539;28;20043;-68
2023/03/29 10:59:15;;;;;;;5.57;3.55;;;13.80;99.90;;;;;;5092655;28;20457;-68
2023/03/29 11:02:16;;;;;;;4.22;3.67;;;13.40;99.90;;;;;;5105914;28;20044;-66
2023/03/29 11:05:09;;;;;;;5.70;3.90;;;13.40;99.90;;;;;;5107772;28;20039;-66
2023/03/29 11:08:08;;;;;;;6.45;4.05;;;13.50;99.90;;;;;;5084606;28;20040;-68
2023/03/29 11:11:07;;;;;;;4.88;3.75;;;14.00;99.90;;;;;;5103000;28;20351;-68
2023/03/29 11:13:35;;;;;;;5.75;3.78;;;14.20;99.90;;;;;;5086210;28;20043;-66
2023/03/29 11:16:20;;;;;;;7.65;3.92;;;14.30;99.90;;;;;;5109210;28;20056;-69
2023/03/29 11:19:11;;;;;;;7.78;3.97;;;14.40;99.90;;;;;;5085098;28;20046;-67
2023/03/29 11:22:11;;;;;;;4.72;3.90;;;14.50;99.90;;;;;;5094042;28;20100;-69
2023/03/29 11:25:05;;;;;;;5.60;3.75;;;15.10;99.90;;;;;;5102274;28;20046;-70
2023/03/29 11:28:00;;;;;;;5.03;4.00;;;15.10;99.90;;;;;;5091104;28;20447;-69
2023/03/29 11:30:35;;;;;;;4.63;3.80;;;15.00;99.90;;;;;;5090269;28;20044;-67
2023/03/29 11:33:27;;;;;;;6.20;4.32;;;14.90;99.90;;;;;;5082366;28;20092;-68
2023/03/29 11:36:04;;;;;;;4.85;3.72;;;15.40;99.90;;;;;;5099698;28;20062;-68
2023/03/29 11:38:41;;;;;;;5.07;4.10;;;15.60;99.90;;;;;;5101269;28;20074;-67
2023/03/29 11:41:20;;;;;;;4.97;4.47;;;15.80;99.90;;;;;;5100017;28;20368;-75
2023/03/29 11:44:10;;;;;;;15.68;8.45;;;16.10;99.90;;;;;;5092575;28;20506;-73
2023/03/29 11:47:02;;;;;;;6.07;4.00;;;16.60;99.90;;;;;;5065953;28;20065;-69
2023/03/29 11:49:48;;;;;;;7.38;4.47;;;16.70;99.90;;;;;;5109176;28;20451;-72
2023/03/29 11:52:31;;;;;;;6.18;4.03;;;16.00;99.90;;;;;;5070559;28;20179;-71
2023/03/29 11:55:03;;;;;;;4.97;4.10;;;16.40;99.90;;;;;;5088096;28;20513;-72
2023/03/29 11:57:41;;;;;;;5.45;4.43;;;16.30;99.90;;;;;;5090166;28;20402;-72
2023/03/29 12:00:13;;;;;;;5.72;4.15;;;16.40;99.90;;;;;;5092123;28;20079;-73
2023/03/29 12:02:46;;;;;;;5.00;4.20;;;16.30;99.90;;;;;;5090936;28;20067;-70
2023/03/29 12:05:18;;;;;;;6.25;4.30;;;16.20;99.90;;;;;;5108885;28;20124;-67
2023/03/29 12:08:02;;;;;;;9.05;4.70;;;16.40;99.90;;;;;;5090828;28;20035;-68
2023/03/29 12:10:54;;;;;;;6.15;4.55;;;16.60;99.90;;;;;;5086009;28;20418;-69
2023/03/29 12:13:31;;;;;;;;;;;16.60;99.90;;;;;;5110821;28;20043;-67
2023/03/29 12:16:07;;;;;;;8.07;4.40;;;16.80;99.90;;;;;;5106119;27;19924;-69
2023/03/29 12:18:45;;;;;;;7.28;4.65;;;16.60;99.90;;;;;;5101311;28;20032;-69
2023/03/29 12:21:17;;;;;;;8.57;4.85;;;16.30;99.90;;;;;;5081811;28;20073;-71
2023/03/29 12:23:46;;;;;;;7.15;4.32;;;15.80;99.90;;;;;;5069869;28;20512;-73
2023/03/29 12:26:39;;;;;;;4.78;4.25;;;16.00;99.90;;;;;;5085077;28;20036;-71
2023/03/29 12:29:24;;;;;;;5.03;4.05;;;16.00;99.90;;;;;;5078804;28;20472;-67
2023/03/29 12:32:20;;;;;;;5.18;4.55;;;15.80;99.90;;;;;;5108805;28;20257;-68
2023/03/29 12:35:45;;;;;;;6.83;4.33;;;15.80;99.90;;;;;;5090768;28;20056;-67
2023/03/29 12:38:33;;;;;;;5.35;3.95;;;16.10;99.90;;;;;;5088797;28;20028;-68
2023/03/29 12:41:22;;;;;;;21.33;6.78;;;16.20;99.90;;;;;;5108145;28;20051;-69
2023/03/29 12:44:13;;;;;;;4.80;4.10;;;16.30;99.90;;;;;;5099655;28;20036;-71
2023/03/29 12:46:53;;;;;;;6.35;4.10;;;16.60;99.90;;;;;;5107618;28;20035;-68
2023/03/29 12:49:34;;;;;;;7.38;4.07;;;16.70;99.90;;;;;;5099160;28;20075;-69
2023/03/29 12:52:07;;;;;;;7.70;4.10;;;16.50;99.90;;;;;;5108608;28;20043;-69
2023/03/29 12:54:34;;;;;;;6.20;4.20;;;17.10;99.90;;;;;;5089405;28;20043;-67
2023/03/29 12:57:24;;;;;;;5.10;4.03;;;16.50;99.90;;;;;;5103414;28;20066;-68
2023/03/29 12:59:54;;;;;;;6.78;4.00;;;16.90;99.90;;;;;;5088424;28;20054;-69
2023/03/29 13:02:21;;;;;;;5.93;3.88;;;16.70;99.90;;;;;;5107465;28;20128;-70
2023/03/29 13:04:52;;;;;;;5.10;4.00;;;16.30;99.90;;;;;;5104472;28;20789;-71
2023/03/29 13:07:25;;;;;;;8.90;4.15;;;16.50;99.90;;;;;;5089898;28;20044;-72
2023/03/29 13:10:02;;;;;;;5.43;4.00;;;16.70;99.90;;;;;;5064494;28;20081;-70
2023/03/29 13:12:44;;;;;;;6.93;4.13;;;16.50;99.90;;;;;;5105844;28;20070;-69
2023/03/29 13:15:17;;;;;;;5.63;3.88;;;17.10;99.90;;;;;;5099482;28;20367;-68
2023/03/29 13:18:14;;;;;;;6.00;3.80;;;17.80;99.90;;;;;;5106659;28;20059;-67
2023/03/29 13:20:57;;;;;;;5.60;3.80;;;18.10;99.90;;;;;;5083699;28;20117;-66
2023/03/29 13:23:37;;;;;;;6.15;3.72;;;18.00;99.90;;;;;;5106897;28;20039;-66
2023/03/29 13:26:22;;;;;;;6.72;4.10;;;17.70;99.90;;;;;;5106863;28;20061;-67
2023/03/29 13:29:33;;;;;;;6.00;3.88;;;17.70;99.90;;;;;;5091739;28;20126;-67
2023/03/29 13:32:21;;;;;;;5.70;4.30;;;17.60;99.90;;;;;;5099879;28;20040;-72
2023/03/29 13:35:10;;;;;;;5.28;4.30;;;17.40;99.90;;;;;;5068621;28;20052;-72
2023/03/29 13:37:59;;;;;;;9.18;4.78;;;16.30;99.90;;;;;;5090416;28;20512;-71
2023/03/29 13:40:45;;;;;;;9.00;4.30;;;15.60;99.90;;;;;;5106691;28;20054;-72
2023/03/29 13:43:21;;;;;;;10.20;4.45;;;15.30;99.90;;;;;;5108896;28;20118;-71
2023/03/29 13:45:57;;;;;;;7.47;4.93;;;15.10;99.90;;;;;;5103747;28;20485;-67